Mexican Water, Arizona
Current Conditions -  °F | °C
As of 3:53 PM on Thursday 20 Nov 2014 (Local Time) from KCEZ Reporting Station
Broken Clouds Broken Clouds  
Wind Chill: 49°   Ceiling: 10000
Heat Index: 49°   Visibility: NA
Dew Point:   Wind: 0mph
Humidity: 20%   Direction: NA
Pressure: 30.06"   Gusts: NA
Location:  36.7518°N, 109.365°W
Report Text: KCEZ 202253Z AUTO 00000KT BKN100 09/M13 A3006 RMK AO2 SLP170 T00941128 $
Loading
Personal Weather Stations






























Interactive Weather Map New forecast layout! Learn more

10-Day Weather Forecast

Advertisements
Track Severe Weather on mobile